Time;durP1;ratioP1;P1;durP2;ratioP2;P2;SDS_P1;SDS_P2;PMS_P1;PMS_P2;Temp;Humidity;BMP_temperature;BMP_pressure;BME280_temperature;BME280_humidity;BME280_pressure;Samples;Min_cycle;Max_cycle;Signal;HPM_P1;HPM_P2
2021/12/05 00:17:37;;;;;;;4.87;1.27;;;;;;;3.94;87.81;96848.66;5076922;28;20273;-73
2021/12/05 00:20:31;;;;;;;5.40;1.20;;;;;;;3.96;87.77;96857.16;5077119;28;20203;-73
2021/12/05 00:22:59;;;;;;;4.93;1.30;;;;;;;3.96;87.88;96853.72;5077027;28;20215;-73
2021/12/05 00:25:29;;;;;;;4.97;1.10;;;;;;;3.96;87.52;96857.16;5077048;28;20196;-73
2021/12/05 00:28:14;;;;;;;5.40;1.23;;;;;;;4.03;86.58;96862.41;5077071;28;20200;-73
2021/12/05 00:33:40;;;;;;;6.03;1.33;;;;;;;4.02;87.55;96866.06;5076182;28;20223;-72
2021/12/05 00:42:02;;;;;;;7.53;1.33;;;;;;;3.95;89.39;96870.50;5077172;28;20180;-73
2021/12/05 00:45:15;;;;;;;3.87;1.23;;;;;;;3.91;88.43;96864.84;5076742;28;20274;-73
2021/12/05 00:48:00;;;;;;;7.87;1.50;;;;;;;3.88;89.32;96865.25;5076004;28;20319;-73
2021/12/05 00:51:01;;;;;;;3.20;1.40;;;;;;;3.91;88.08;96867.50;5077134;28;20220;-73
2021/12/05 00:56:26;;;;;;;4.27;1.30;;;;;;;3.83;89.56;96861.63;5076640;28;20175;-73
2021/12/05 01:02:09;;;;;;;4.53;1.37;;;;;;;3.75;89.48;96862.66;5076673;28;20271;-72
2021/12/05 01:04:45;;;;;;;3.53;1.20;;;;;;;3.78;89.23;96870.16;5075999;28;20587;-73
2021/12/05 01:07:26;;;;;;;4.87;1.07;;;;;;;3.68;90.98;96869.75;5076589;28;20200;-72
2021/12/05 01:10:06;;;;;;;6.20;1.20;;;;;;;3.66;91.32;96870.97;5076612;28;20223;-73
2021/12/05 01:12:50;;;;;;;4.63;1.30;;;;;;;3.72;90.59;96872.78;5076078;28;20228;-73
2021/12/05 01:15:21;;;;;;;4.27;1.20;;;;;;;3.71;91.43;96863.28;5076491;28;20193;-73
2021/12/05 01:18:00;;;;;;;4.37;1.40;;;;;;;3.68;91.49;96864.50;5076293;28;20212;-73
2021/12/05 01:20:28;;;;;;;5.37;1.30;;;;;;;3.67;92.19;96867.34;5076625;28;20204;-72
2021/12/05 01:23:00;;;;;;;5.37;1.43;;;;;;;3.61;92.68;96876.03;5075999;28;20272;-74
2021/12/05 01:25:37;;;;;;;5.83;1.40;;;;;;;3.56;92.42;96875.81;5076337;28;20189;-73
2021/12/05 01:28:11;;;;;;;6.37;1.13;;;;;;;3.64;92.11;96876.44;5076051;28;20598;-73
2021/12/05 01:30:44;;;;;;;5.83;1.50;;;;;;;3.64;92.23;96878.25;5076345;28;20199;-73
2021/12/05 01:33:17;;;;;;;3.33;1.00;;;;;;;3.66;92.01;96881.50;5075967;28;20315;-73
2021/12/05 01:38:59;;;;;;;3.30;1.43;;;;;;;3.59;93.45;96885.94;5034250;28;20255;-73
2021/12/05 01:41:59;;;;;;;3.97;1.13;;;;;;;3.64;93.27;96892.19;5034529;28;20213;-73
2021/12/05 01:47:40;;;;;;;3.13;1.07;;;;;;;3.71;92.37;96897.44;5075947;28;20172;-73
2021/12/05 01:50:42;;;;;;;3.87;1.30;;;;;;;3.74;91.91;96900.47;5076437;28;20258;-73
2021/12/05 02:10:46;;;;;;;3.50;1.20;;;;;;;3.67;91.41;96886.53;5079427;28;20571;-73
2021/12/05 02:16:04;;;;;;;1.37;1.10;;;;;;;3.64;91.09;96878.25;5079629;28;20474;-73
2021/12/05 02:29:45;;;;;;;4.27;1.10;;;;;;;3.37;91.12;96851.19;5079398;28;20176;-72
2021/12/05 02:32:36;;;;;;;2.47;1.20;;;;;;;3.42;90.56;96846.13;5079198;28;20208;-73
2021/12/05 02:35:18;;;;;;;2.53;1.10;;;;;;;3.37;90.77;96853.00;5079094;28;20221;-73
2021/12/05 02:38:10;;;;;;;2.87;0.97;;;;;;;3.37;90.49;96855.63;5078831;28;20189;-72
2021/12/05 02:40:49;;;;;;;3.80;0.93;;;;;;;3.31;90.58;96856.44;5078820;28;20189;-73
2021/12/05 02:43:24;;;;;;;3.13;1.03;;;;;;;3.32;90.57;96858.06;5078849;28;20213;-68
2021/12/05 02:45:53;;;;;;;2.43;1.20;;;;;;;3.29;91.11;96869.00;5078440;28;20203;-68
2021/12/05 02:48:22;;;;;;;3.90;1.20;;;;;;;3.30;90.94;96867.97;5078867;28;20193;-68
2021/12/05 02:50:55;;;;;;;3.97;1.13;;;;;;;3.39;90.58;96864.13;5078444;28;20679;-68
2021/12/05 02:53:35;;;;;;;2.67;1.10;;;;;;;3.42;90.15;96859.28;5078403;28;20293;-68
2021/12/05 02:56:09;;;;;;;3.90;1.17;;;;;;;3.51;90.23;96859.84;5078344;28;20197;-68
2021/12/05 02:58:45;;;;;;;3.67;1.10;;;;;;;3.52;89.96;96851.00;5078350;28;20200;-68
2021/12/05 03:01:21;;;;;;;1.43;0.90;;;;;;;3.57;89.52;96843.31;5078350;28;20300;-68
2021/12/05 03:03:50;;;;;;;3.53;1.10;;;;;;;3.56;89.67;96844.28;5078343;28;20266;-68
2021/12/05 03:06:21;;;;;;;4.60;1.30;;;;;;;3.59;88.97;96844.72;5078618;28;20545;-69
2021/12/05 03:08:57;;;;;;;1.80;0.97;;;;;;;3.55;88.81;96847.94;5078666;28;20189;-69
2021/12/05 03:11:31;;;;;;;2.90;1.17;;;;;;;3.60;89.86;96846.31;5077770;28;20513;-69
2021/12/05 03:14:05;;;;;;;1.57;0.80;;;;;;;3.54;89.51;96836.63;5077947;28;20237;-69
2021/12/05 03:16:42;;;;;;;2.33;0.90;;;;;;;3.56;90.20;96844.28;5078051;28;20595;-68
2021/12/05 03:19:17;;;;;;;3.73;1.27;;;;;;;3.57;89.81;96845.94;5077909;28;20231;-69
2021/12/05 03:21:51;;;;;;;4.40;1.13;;;;;;;3.55;89.77;96840.88;5077964;28;20192;-69
2021/12/05 03:24:29;;;;;;;2.60;1.10;;;;;;;3.57;89.61;96844.09;5078153;28;20220;-68
2021/12/05 03:27:04;;;;;;;2.47;0.93;;;;;;;3.59;88.80;96839.44;5077834;28;20279;-68
2021/12/05 03:29:40;;;;;;;4.27;1.20;;;;;;;3.64;88.38;96836.19;5077778;28;20200;-68
2021/12/05 03:32:08;;;;;;;4.87;1.67;;;;;;;3.59;90.11;96838.63;5077560;28;20184;-68
2021/12/05 03:34:34;;;;;;;5.37;1.13;;;;;;;3.52;90.52;96843.91;5077695;28;20647;-68
2021/12/05 03:37:02;;;;;;;2.90;1.27;;;;;;;3.54;89.54;96831.38;5077775;28;20200;-68
2021/12/05 03:39:29;;;;;;;5.13;1.50;;;;;;;3.51;88.85;96833.59;5078031;28;20193;-69
2021/12/05 03:41:57;;;;;;;5.90;1.20;;;;;;;3.52;88.80;96833.38;5077573;28;20204;-68
2021/12/05 03:44:28;;;;;;;4.27;1.53;;;;;;;3.54;89.12;96830.56;5077795;28;20525;-68
2021/12/05 03:46:56;;;;;;;3.70;1.20;;;;;;;3.48;89.21;96826.13;5077526;28;20189;-69
2021/12/05 03:49:24;;;;;;;5.53;1.30;;;;;;;3.49;88.60;96820.69;5077803;28;20200;-68
2021/12/05 03:51:56;;;;;;;2.27;1.00;;;;;;;3.54;87.76;96817.44;5077718;28;20304;-69
2021/12/05 03:54:22;;;;;;;3.97;1.17;;;;;;;3.44;88.52;96815.19;5077500;28;20307;-68
2021/12/05 03:56:50;;;;;;;4.33;1.30;;;;;;;3.41;88.95;96814.81;5077598;28;20197;-69
2021/12/05 03:59:17;;;;;;;2.40;1.07;;;;;;;3.36;88.55;96817.25;5077282;28;20594;-68
2021/12/05 04:01:46;;;;;;;4.33;1.13;;;;;;;3.28;88.64;96823.53;5077542;28;20534;-69
2021/12/05 04:04:13;;;;;;;1.37;0.83;;;;;;;3.20;89.72;96828.19;5077447;28;20220;-72
2021/12/05 04:06:40;;;;;;;1.93;0.63;;;;;;;3.14;89.19;96816.66;5077418;28;20192;-72
2021/12/05 04:09:11;;;;;;;2.27;1.30;;;;;;;3.13;90.05;96825.56;5077339;28;20188;-72
2021/12/05 04:11:45;;;;;;;4.07;1.40;;;;;;;3.11;89.64;96818.91;5076851;28;20607;-72
2021/12/05 04:14:14;;;;;;;2.50;1.20;;;;;;;3.07;89.21;96821.09;5077105;28;20225;-72
2021/12/05 04:16:42;;;;;;;4.83;1.40;;;;;;;3.07;89.59;96820.31;5076906;28;20591;-72
2021/12/05 04:19:09;;;;;;;3.37;1.20;;;;;;;3.08;89.41;96825.31;5077147;28;20503;-72
2021/12/05 04:21:37;;;;;;;5.03;1.83;;;;;;;3.03;89.98;96821.72;5077143;28;20189;-72
2021/12/05 04:24:06;;;;;;;3.20;1.30;;;;;;;2.98;89.87;96824.94;5076950;28;20224;-72
2021/12/05 04:26:33;;;;;;;4.83;0.97;;;;;;;3.00;89.96;96830.81;5076742;28;20280;-72
2021/12/05 04:28:59;;;;;;;3.63;1.40;;;;;;;3.14;88.80;96834.22;5077061;28;20196;-72
2021/12/05 04:31:26;;;;;;;6.60;1.07;;;;;;;3.16;89.32;96826.97;5077008;28;20189;-72
2021/12/05 04:33:52;;;;;;;3.17;1.00;;;;;;;3.22;89.39;96831.41;5076751;28;20235;-72
2021/12/05 04:36:20;;;;;;;4.03;1.07;;;;;;;3.25;89.34;96834.41;5076584;28;20189;-72
2021/12/05 04:38:47;;;;;;;2.47;0.90;;;;;;;3.28;89.26;96831.41;5076399;28;20204;-72
2021/12/05 04:41:14;;;;;;;3.40;0.90;;;;;;;3.29;89.21;96832.22;5076780;28;20203;-72
2021/12/05 04:43:41;;;;;;;3.87;1.10;;;;;;;3.35;89.01;96834.81;5076746;28;20216;-72
2021/12/05 04:46:12;;;;;;;3.70;1.07;;;;;;;3.36;90.03;96838.25;5076699;28;20193;-72
2021/12/05 04:48:39;;;;;;;2.70;1.10;;;;;;;3.35;89.08;96842.69;5076420;28;20188;-72
2021/12/05 04:51:08;;;;;;;4.33;0.97;;;;;;;3.31;90.11;96838.06;5076708;28;20217;-72
2021/12/05 04:53:34;;;;;;;4.00;0.97;;;;;;;3.27;90.33;96835.03;5076510;28;20588;-72
2021/12/05 04:56:01;;;;;;;3.70;1.00;;;;;;;3.29;90.45;96842.72;5076387;28;20591;-72
2021/12/05 04:58:28;;;;;;;2.80;0.97;;;;;;;3.27;91.24;96840.28;5076715;28;20212;-72
2021/12/05 05:00:57;;;;;;;2.97;1.23;;;;;;;3.18;91.18;96832.81;5076656;28;20216;-72
2021/12/05 05:03:25;;;;;;;2.67;0.90;;;;;;;3.16;91.59;96842.72;5076524;28;20224;-72
2021/12/05 05:05:59;;;;;;;6.30;1.47;;;;;;;3.08;91.31;96832.41;5076263;28;20192;-72
2021/12/05 05:08:26;;;;;;;3.70;1.00;;;;;;;3.03;91.88;96829.59;5076447;28;20184;-72
2021/12/05 05:10:52;;;;;;;3.13;0.90;;;;;;;2.93;92.17;96837.06;5076378;28;20193;-72
2021/12/05 05:13:19;;;;;;;3.20;1.00;;;;;;;2.87;92.23;96836.03;5075877;28;20221;-72
2021/12/05 05:15:45;;;;;;;6.43;1.43;;;;;;;2.85;92.20;96839.88;5076406;28;20478;-72
2021/12/05 05:18:13;;;;;;;3.60;1.33;;;;;;;2.81;92.85;96831.59;5076410;28;20193;-72
2021/12/05 05:20:46;;;;;;;2.33;1.13;;;;;;;2.80;93.28;96832.59;5076079;28;20239;-72
2021/12/05 05:23:36;;;;;;;2.97;1.07;;;;;;;2.71;93.25;96833.00;5076714;28;20231;-72
2021/12/05 05:48:27;;;;;;;4.13;1.10;;;;;;;2.42;95.00;96834.13;5077941;28;20521;-72
2021/12/05 05:50:55;;;;;;;1.97;0.80;;;;;;;2.39;94.76;96828.47;5080058;28;20232;-72
2021/12/05 05:53:21;;;;;;;3.43;0.80;;;;;;;2.42;95.21;96830.69;5079838;28;20225;-73
2021/12/05 05:55:48;;;;;;;2.80;0.90;;;;;;;2.38;95.46;96832.09;5079923;28;20203;-72
2021/12/05 05:58:16;;;;;;;4.87;1.03;;;;;;;2.37;94.64;96830.47;5079525;28;20615;-73
2021/12/05 06:00:57;;;;;;;4.50;1.00;;;;;;;2.42;94.34;96834.13;5079827;28;20209;-72
2021/12/05 06:03:24;;;;;;;4.23;1.20;;;;;;;2.48;94.39;96835.16;5079660;28;20224;-73
2021/12/05 06:05:54;;;;;;;3.33;0.90;;;;;;;2.41;94.62;96853.50;5079725;28;20220;-73
2021/12/05 06:08:23;;;;;;;1.53;1.00;;;;;;;2.47;94.32;96844.84;5079575;28;20200;-73
2021/12/05 06:10:51;;;;;;;3.77;1.10;;;;;;;2.46;94.44;96851.09;5079648;28;20189;-73
2021/12/05 06:13:19;;;;;;;1.67;0.90;;;;;;;2.53;93.96;96845.88;5079004;28;20233;-73
2021/12/05 06:15:47;;;;;;;3.27;0.97;;;;;;;2.48;94.16;96846.44;5079146;28;20185;-73
2021/12/05 06:18:14;;;;;;;4.03;0.80;;;;;;;2.55;94.06;96843.84;5079197;28;20193;-73
2021/12/05 06:20:41;;;;;;;4.20;1.17;;;;;;;2.39;94.88;96844.22;5079492;28;20196;-73
2021/12/05 06:23:09;;;;;;;2.43;1.07;;;;;;;2.41;94.62;96843.00;5079315;28;20271;-69
2021/12/05 06:25:38;;;;;;;2.10;1.00;;;;;;;2.35;94.95;96841.16;5079277;28;20500;-68
2021/12/05 06:28:10;;;;;;;2.80;1.00;;;;;;;2.29;95.33;96838.50;5079956;28;20223;-69
2021/12/05 06:30:47;;;;;;;4.60;1.00;;;;;;;2.37;94.13;96840.97;5078907;28;20576;-68
2021/12/05 06:39:05;;;;;;;2.93;1.20;;;;;;;2.34;93.70;96836.13;5078823;28;20172;-68
2021/12/05 06:47:02;;;;;;;4.07;1.10;;;;;;;2.24;93.90;96835.66;5078655;28;20172;-69
2021/12/05 06:49:29;;;;;;;0.97;0.70;;;;;;;2.15;94.74;96844.72;5078497;28;20498;-68
2021/12/05 06:51:55;;;;;;;4.17;0.90;;;;;;;2.12;94.56;96842.50;5078863;28;20193;-68
2021/12/05 06:54:22;;;;;;;4.87;0.90;;;;;;;2.02;95.37;96842.03;5078532;28;20233;-69
2021/12/05 06:56:49;;;;;;;1.73;0.70;;;;;;;2.09;95.10;96842.88;5078879;28;20189;-69
2021/12/05 06:59:15;;;;;;;1.57;0.83;;;;;;;1.96;95.40;96855.94;5078528;28;20583;-68
2021/12/05 07:01:42;;;;;;;4.77;1.30;;;;;;;1.93;95.36;96854.50;5078770;28;20199;-69
2021/12/05 07:04:17;;;;;;;4.40;1.00;;;;;;;1.91;96.00;96855.69;5078614;28;20232;-69
2021/12/05 07:06:43;;;;;;;4.03;1.07;;;;;;;1.97;95.73;96853.13;5078455;28;20548;-68
2021/12/05 07:09:10;;;;;;;2.83;1.00;;;;;;;2.08;94.88;96857.00;5078488;28;20199;-68
2021/12/05 07:11:45;;;;;;;2.53;1.20;;;;;;;1.98;95.66;96859.97;5078691;28;20216;-68
2021/12/05 07:14:36;;;;;;;4.37;1.00;;;;;;;1.96;96.17;96866.41;5077874;28;20228;-69
2021/12/05 07:17:07;;;;;;;1.33;0.90;;;;;;;2.02;95.81;96863.81;5078749;28;20230;-68
2021/12/05 07:19:46;;;;;;;1.60;1.13;;;;;;;2.02;95.96;96863.00;5078192;28;20201;-68
2021/12/05 07:22:20;;;;;;;2.67;1.27;;;;;;;2.01;95.73;96869.25;5078856;28;20212;-69
2021/12/05 07:24:49;;;;;;;3.27;1.00;;;;;;;2.00;95.74;96859.78;5078077;28;20248;-69
2021/12/05 07:40:54;;;;;;;3.43;0.90;;;;;;;2.23;95.29;96874.22;5077959;28;20223;-69
2021/12/05 07:43:20;;;;;;;3.20;1.00;;;;;;;2.29;94.62;96862.94;5077851;28;20295;-69
2021/12/05 07:45:54;;;;;;;4.43;1.00;;;;;;;2.34;94.83;96864.97;5077384;28;20219;-68
2021/12/05 07:48:25;;;;;;;3.50;1.10;;;;;;;2.30;95.02;96859.28;5077418;28;20189;-68
2021/12/05 07:51:07;;;;;;;1.47;0.90;;;;;;;2.26;95.41;96867.75;5077584;28;20208;-68
2021/12/05 07:53:42;;;;;;;1.93;0.90;;;;;;;2.32;94.58;96869.59;5077896;28;20248;-69
2021/12/05 07:56:14;;;;;;;4.10;1.30;;;;;;;2.38;94.14;96874.03;5076541;28;20522;-68
2021/12/05 07:59:08;;;;;;;4.43;1.00;;;;;;;2.37;94.18;96878.50;5077604;28;20189;-69
2021/12/05 08:15:19;;;;;;;2.00;1.07;;;;;;;2.63;93.01;96883.84;5077092;28;20219;-68
2021/12/05 08:17:52;;;;;;;3.27;1.10;;;;;;;2.59;93.03;96887.03;5077486;28;20205;-69
2021/12/05 08:20:21;;;;;;;1.87;0.90;;;;;;;2.72;93.19;96884.44;5076836;28;20271;-69
2021/12/05 08:22:47;;;;;;;3.47;1.10;;;;;;;2.69;92.82;96885.66;5076338;28;20198;-68
2021/12/05 08:25:14;;;;;;;1.93;1.07;;;;;;;2.70;92.61;96884.66;5076747;28;20200;-69
2021/12/05 08:27:46;;;;;;;2.87;0.87;;;;;;;2.84;92.63;96882.88;5076881;28;20203;-69
2021/12/05 08:30:18;;;;;;;3.83;0.97;;;;;;;2.80;92.03;96879.03;5077408;28;20201;-69
2021/12/05 08:32:58;;;;;;;3.43;0.90;;;;;;;2.86;92.08;96879.03;5076840;28;20185;-69
2021/12/05 08:35:45;;;;;;;2.47;1.03;;;;;;;2.94;91.39;96868.34;5076909;28;20637;-68
2021/12/05 08:41:31;;;;;;;2.13;1.00;;;;;;;3.06;90.16;96873.78;5055547;28;20196;-68
2021/12/05 08:44:26;;;;;;;2.33;0.90;;;;;;;3.20;89.68;96873.63;5076467;28;20269;-69
2021/12/05 09:20:02;;;;;;;4.57;1.27;;;;;;;3.65;86.05;96893.00;5075976;28;20195;-69
2021/12/05 09:28:43;;;;;;;2.87;0.97;;;;;;;4.09;84.71;96901.84;5058641;28;20200;-68
2021/12/05 09:38:28;;;;;;;1.77;0.70;;;;;;;4.09;85.04;96903.63;5076597;28;20199;-70
2021/12/05 09:40:10;;;;;;;1.80;0.97;;;;;;;4.34;83.58;96905.38;5075878;28;20172;-68
2021/12/05 09:51:21;;;;;;;2.33;0.90;;;;;;;5.05;82.75;96901.59;5076011;28;20172;-68
2021/12/05 10:07:50;;;;;;;2.30;0.70;;;;;;;5.33;79.00;96885.41;5075858;28;20179;-68
2021/12/05 10:10:28;;;;;;;1.77;0.83;;;;;;;5.34;79.70;96877.28;5075959;28;20200;-73
2021/12/05 10:13:07;;;;;;;2.53;0.93;;;;;;;5.41;78.80;96879.84;5075222;28;20303;-73
2021/12/05 10:15:50;;;;;;;4.20;1.50;;;;;;;5.53;78.52;96873.69;5075761;28;20209;-73
2021/12/05 10:19:04;;;;;;;1.73;1.10;;;;;;;5.42;78.23;96874.38;5076188;28;20196;-73
2021/12/05 10:38:32;;;;;;;1.50;0.70;;;;;;;5.38;73.58;96861.84;5079054;28;20181;-73
2021/12/05 10:41:18;;;;;;;2.60;0.80;;;;;;;5.34;75.00;96865.94;5078609;28;20280;-73
2021/12/05 10:43:48;;;;;;;0.83;0.70;;;;;;;5.27;74.86;96858.09;5078573;28;20224;-74
2021/12/05 10:46:18;;;;;;;2.07;0.80;;;;;;;5.32;75.52;96866.16;5078670;28;20197;-73
2021/12/05 10:49:02;;;;;;;1.93;0.70;;;;;;;5.40;74.94;96859.81;5078312;28;20193;-73
2021/12/05 10:51:33;;;;;;;0.93;0.50;;;;;;;5.48;74.85;96855.06;5078381;28;20554;-73
2021/12/05 10:54:09;;;;;;;1.77;0.67;;;;;;;5.68;75.79;96854.88;5078381;28;20225;-73
2021/12/05 10:56:37;;;;;;;2.17;0.77;;;;;;;5.82;73.84;96845.84;5078194;28;20188;-73
2021/12/05 10:59:07;;;;;;;2.20;0.70;;;;;;;5.96;74.12;96842.88;5078303;28;20193;-73
2021/12/05 11:01:46;;;;;;;1.40;0.60;;;;;;;6.07;72.26;96838.69;5077909;28;20674;-74
2021/12/05 11:04:28;;;;;;;1.63;0.70;;;;;;;6.03;72.02;96840.16;5077856;28;20259;-73
2021/12/05 11:06:59;;;;;;;1.90;1.00;;;;;;;6.05;72.33;96836.28;5078199;28;20208;-72
2021/12/05 11:09:34;;;;;;;1.87;0.70;;;;;;;5.95;71.56;96832.53;5077873;28;20603;-72
2021/12/05 11:12:34;;;;;;;2.67;0.60;;;;;;;5.85;72.31;96825.16;5078292;28;20212;-73
2021/12/05 11:15:02;;;;;;;1.80;0.53;;;;;;;5.97;71.87;96827.84;5072938;28;20225;-73
2021/12/05 11:17:43;;;;;;;1.73;0.70;;;;;;;5.84;71.53;96820.09;5077825;28;20705;-73
2021/12/05 11:20:28;;;;;;;1.80;0.67;;;;;;;5.77;71.77;96828.03;5078042;28;20242;-73
2021/12/05 11:22:56;;;;;;;1.13;0.57;;;;;;;5.90;71.10;96827.94;5077871;28;20284;-73
2021/12/05 11:25:28;;;;;;;2.77;0.70;;;;;;;6.04;72.32;96818.84;5077801;28;20452;-73
2021/12/05 11:28:08;;;;;;;1.33;0.70;;;;;;;6.05;71.66;96817.00;5077768;28;20300;-72
2021/12/05 11:30:37;;;;;;;2.17;0.70;;;;;;;6.22;69.88;96823.28;5077933;28;20231;-73
2021/12/05 11:33:17;;;;;;;0.80;0.50;;;;;;;6.32;69.29;96815.66;5077796;28;20207;-73
2021/12/05 11:35:51;;;;;;;0.80;0.50;;;;;;;6.20;71.27;96817.44;5077660;28;20307;-73
2021/12/05 11:38:19;;;;;;;1.00;0.60;;;;;;;5.99;72.18;96826.63;5077763;28;20469;-73
2021/12/05 11:41:06;;;;;;;1.50;0.70;;;;;;;5.93;71.10;96821.41;5077612;28;20279;-73
2021/12/05 11:43:47;;;;;;;0.87;0.50;;;;;;;5.87;70.71;96827.53;5077189;28;20307;-73
2021/12/05 11:46:29;;;;;;;1.70;0.60;;;;;;;5.72;71.01;96835.78;5077308;28;20188;-73
2021/12/05 11:49:02;;;;;;;0.77;0.50;;;;;;;5.77;70.38;96835.94;5077395;28;20192;-73
2021/12/05 11:51:32;;;;;;;1.07;0.70;;;;;;;5.70;72.25;96832.53;5077283;28;20272;-73
2021/12/05 11:54:18;;;;;;;2.50;0.83;;;;;;;5.58;70.81;96822.94;5077283;28;20280;-73
2021/12/05 11:56:56;;;;;;;0.90;0.70;;;;;;;5.64;73.82;96812.34;5077329;28;20197;-73
2021/12/05 11:59:35;;;;;;;1.87;0.67;;;;;;;5.57;72.18;96826.59;5077190;28;20205;-73
2021/12/05 12:02:17;;;;;;;1.37;0.47;;;;;;;5.52;71.90;96824.59;5077031;28;20193;-73
2021/12/05 12:04:49;;;;;;;1.23;0.67;;;;;;;5.62;71.08;96827.59;5076756;28;20216;-73
2021/12/05 12:07:26;;;;;;;1.13;0.60;;;;;;;5.66;74.21;96830.59;5077189;28;20188;-73
2021/12/05 12:10:13;;;;;;;0.77;0.60;;;;;;;5.64;73.37;96827.34;5077701;28;20189;-73
2021/12/05 12:12:42;;;;;;;0.60;0.43;;;;;;;5.59;72.89;96819.28;5077235;28;20218;-73
2021/12/05 12:15:10;;;;;;;1.17;0.60;;;;;;;5.67;73.00;96826.91;5076510;28;20230;-73
2021/12/05 12:17:36;;;;;;;1.17;0.50;;;;;;;5.66;71.86;96820.03;5076697;28;20188;-73
2021/12/05 12:20:06;;;;;;;0.67;0.60;;;;;;;5.64;71.70;96820.25;5076521;28;20577;-73
2021/12/05 12:22:33;;;;;;;3.80;0.80;;;;;;;5.71;72.81;96813.09;5076980;28;20223;-73
2021/12/05 12:25:04;;;;;;;1.03;0.60;;;;;;;5.75;72.65;96822.16;5076693;28;20224;-73
2021/12/05 12:27:31;;;;;;;1.60;0.70;;;;;;;5.78;73.00;96816.44;5077340;28;20489;-72
2021/12/05 12:30:00;;;;;;;1.50;0.63;;;;;;;5.76;72.74;96820.34;5076720;28;20188;-73
2021/12/05 12:32:33;;;;;;;1.40;0.70;;;;;;;5.82;73.16;96822.13;5076551;28;20204;-73
2021/12/05 12:35:10;;;;;;;0.67;0.63;;;;;;;5.84;71.91;96817.44;5076271;28;20248;-73
2021/12/05 12:38:17;;;;;;;1.97;0.63;;;;;;;5.96;72.52;96824.41;5076025;28;20193;-73
2021/12/05 12:41:00;;;;;;;0.63;0.63;;;;;;;5.91;71.43;96818.97;5076095;28;20565;-73
2021/12/05 12:43:47;;;;;;;1.40;0.70;;;;;;;5.98;71.35;96816.28;5075221;28;20220;-73
2021/12/05 12:46:31;;;;;;;1.03;0.63;;;;;;;5.98;71.18;96816.28;5075967;28;20192;-73
2021/12/05 12:49:17;;;;;;;0.73;0.50;;;;;;;5.94;71.81;96820.38;5076205;28;20493;-73
2021/12/05 12:51:58;;;;;;;1.87;0.90;;;;;;;5.89;71.24;96813.09;5074907;28;20195;-73
2021/12/05 12:54:34;;;;;;;3.07;0.67;;;;;;;5.85;72.80;96814.59;5076080;28;20319;-73
2021/12/05 12:57:06;;;;;;;1.57;0.70;;;;;;;5.87;73.33;96814.34;5076300;28;20207;-73
2021/12/05 12:59:36;;;;;;;0.93;0.77;;;;;;;5.85;74.38;96811.97;5076219;28;20193;-73
2021/12/05 13:02:38;;;;;;;1.20;0.70;;;;;;;6.01;73.42;96810.56;5075893;28;20189;-73
2021/12/05 13:05:24;;;;;;;1.20;0.53;;;;;;;6.25;71.75;96814.94;5075511;28;20226;-73
2021/12/05 13:10:43;;;;;;;0.70;0.60;;;;;;;6.57;70.50;96811.06;5076002;28;20256;-72
2021/12/05 13:13:25;;;;;;;1.23;0.60;;;;;;;6.49;67.50;96814.03;5075855;28;20236;-73
2021/12/05 13:16:00;;;;;;;0.43;0.40;;;;;;;6.28;66.70;96806.56;5075791;28;20204;-73
2021/12/05 13:18:36;;;;;;;0.40;0.40;;;;;;;6.22;67.13;96818.00;5075760;28;20184;-73
2021/12/05 13:21:11;;;;;;;0.73;0.60;;;;;;;6.13;67.45;96819.34;5075851;28;20250;-73
2021/12/05 13:23:48;;;;;;;0.60;0.40;;;;;;;6.20;66.64;96820.88;5075386;28;20634;-73
2021/12/05 13:26:38;;;;;;;1.70;0.40;;;;;;;6.23;66.75;96819.63;5075610;28;20196;-73
2021/12/05 13:29:14;;;;;;;0.70;0.50;;;;;;;6.33;69.54;96823.34;5075695;28;20205;-73
2021/12/05 13:31:47;;;;;;;1.63;0.60;;;;;;;6.24;68.15;96829.97;5076137;28;20211;-73
2021/12/05 13:34:32;;;;;;;2.17;0.50;;;;;;;6.47;67.95;96829.28;5075447;28;20508;-73
2021/12/05 13:37:13;;;;;;;0.37;0.37;;;;;;;6.58;66.87;96837.25;5075456;28;20193;-73
2021/12/05 13:40:00;;;;;;;0.73;0.50;;;;;;;6.73;67.58;96834.19;5075422;28;20195;-73
2021/12/05 13:42:42;;;;;;;0.40;0.40;;;;;;;6.65;66.83;96831.88;5075449;28;20193;-73
2021/12/05 13:45:49;;;;;;;0.60;0.50;;;;;;;6.77;67.83;96843.28;5075046;28;20220;-72
2021/12/05 13:48:40;;;;;;;0.87;0.40;;;;;;;6.67;68.67;96840.38;5071508;28;20296;-73
2021/12/05 13:51:08;;;;;;;0.93;0.60;;;;;;;6.40;71.14;96847.03;5075203;28;20205;-73
2021/12/05 13:53:43;;;;;;;0.97;0.60;;;;;;;6.30;71.01;96839.66;5075356;28;20677;-72
2021/12/05 13:56:12;;;;;;;0.63;0.47;;;;;;;6.30;71.60;96833.56;5078869;28;20216;-73
2021/12/05 13:58:45;;;;;;;1.00;0.57;;;;;;;6.19;71.24;96842.22;5079480;28;20199;-73
2021/12/05 14:01:35;;;;;;;0.73;0.57;;;;;;;6.13;71.36;96851.00;5079454;28;20243;-73
2021/12/05 14:04:18;;;;;;;0.93;0.50;;;;;;;6.07;70.88;96852.69;5079577;28;20303;-73
2021/12/05 14:06:54;;;;;;;0.97;0.63;;;;;;;5.92;73.38;96860.16;5079369;28;20207;-73
2021/12/05 14:09:31;;;;;;;1.70;1.00;;;;;;;5.23;75.45;96861.34;5078929;28;20192;-73
2021/12/05 14:12:27;;;;;;;1.07;0.70;;;;;;;5.25;76.11;96869.84;5078988;28;20630;-73
2021/12/05 14:15:00;;;;;;;1.40;0.80;;;;;;;5.27;76.44;96873.06;5078677;28;20224;-73
2021/12/05 14:17:35;;;;;;;2.07;1.03;;;;;;;5.47;76.16;96873.75;5079103;28;20212;-73
2021/12/05 14:20:10;;;;;;;1.47;1.00;;;;;;;5.39;77.68;96887.19;5079046;28;20189;-73
2021/12/05 14:22:38;;;;;;;1.73;0.80;;;;;;;5.38;77.16;96883.72;5078856;28;20193;-72
2021/12/05 14:25:10;;;;;;;4.97;1.30;;;;;;;5.28;77.48;96886.03;5078588;28;20227;-73
2021/12/05 14:27:42;;;;;;;1.30;0.87;;;;;;;5.32;77.14;96894.31;5078748;28;20185;-73
2021/12/05 14:30:12;;;;;;;1.30;1.00;;;;;;;5.25;78.02;96888.31;5069565;28;20194;-73
2021/12/05 14:32:42;;;;;;;3.60;1.10;;;;;;;5.34;77.98;96887.03;5073037;28;20189;-73
2021/12/05 14:35:13;;;;;;;1.60;1.07;;;;;;;5.14;79.03;96883.69;5076012;28;20228;-73
2021/12/05 14:37:42;;;;;;;1.73;0.93;;;;;;;5.02;79.32;96883.56;5069907;28;20189;-73
2021/12/05 14:40:15;;;;;;;1.47;0.87;;;;;;;4.99;80.30;96888.47;5063810;28;20212;-73
2021/12/05 14:42:44;;;;;;;2.47;1.00;;;;;;;5.15;79.33;96886.13;5064108;28;20185;-73
2021/12/05 14:45:21;;;;;;;0.90;0.90;;;;;;;5.17;78.95;96889.38;5060015;28;20217;-73
2021/12/05 14:47:50;;;;;;;1.53;0.80;;;;;;;5.04;78.68;96893.91;5058214;28;20216;-73
2021/12/05 14:50:30;;;;;;;3.30;1.10;;;;;;;4.97;79.26;96903.69;5058402;28;20205;-73
2021/12/05 14:53:06;;;;;;;1.70;0.97;;;;;;;5.19;78.08;96904.94;5058148;28;20189;-73
2021/12/05 14:55:36;;;;;;;0.87;0.83;;;;;;;5.03;78.66;96902.84;5058016;28;20209;-74
2021/12/05 14:58:10;;;;;;;0.80;0.80;;;;;;;4.96;79.45;96907.31;5058543;28;20185;-73
2021/12/05 15:00:43;;;;;;;3.43;1.10;;;;;;;4.78;80.58;96909.84;5058159;28;20193;-73
2021/12/05 15:03:13;;;;;;;3.37;1.23;;;;;;;4.77;81.23;96914.31;5057845;28;20221;-73
2021/12/05 15:05:43;;;;;;;2.23;1.27;;;;;;;4.62;81.63;96924.28;5057993;28;20235;-73
2021/12/05 15:08:13;;;;;;;1.87;0.90;;;;;;;4.54;81.69;96919.28;5058284;28;20199;-73
2021/12/05 15:10:42;;;;;;;1.33;1.10;;;;;;;4.46;83.41;96919.50;5058083;28;20202;-73
2021/12/05 15:13:08;;;;;;;1.90;0.97;;;;;;;4.42;86.05;96915.69;5057767;28;20229;-73
2021/12/05 15:15:36;;;;;;;2.63;1.30;;;;;;;4.38;86.91;96925.00;5058039;28;20291;-73
2021/12/05 15:18:04;;;;;;;2.97;0.90;;;;;;;4.56;83.52;96933.03;5058421;28;20193;-73
2021/12/05 15:20:35;;;;;;;2.27;1.10;;;;;;;4.82;81.39;96932.09;5057786;28;20585;-73
2021/12/05 15:23:08;;;;;;;1.90;1.23;;;;;;;4.75;81.88;96934.78;5057738;28;20195;-73
2021/12/05 15:25:38;;;;;;;1.87;1.30;;;;;;;4.54;82.49;96942.16;5057921;28;20193;-73
2021/12/05 15:28:06;;;;;;;1.53;1.07;;;;;;;4.41;84.64;96957.97;5057950;28;20216;-73
2021/12/05 15:30:37;;;;;;;1.50;1.23;;;;;;;4.58;82.97;96946.81;5057873;28;20190;-73
2021/12/05 15:33:10;;;;;;;2.63;1.60;;;;;;;4.62;83.01;96947.97;5057885;28;20235;-73
2021/12/05 15:35:37;;;;;;;2.03;1.10;;;;;;;4.52;83.90;96954.72;5057854;28;20214;-73
2021/12/05 15:38:06;;;;;;;1.37;1.17;;;;;;;4.45;83.75;96956.56;5057937;28;20198;-73
2021/12/05 15:40:34;;;;;;;2.73;1.50;;;;;;;4.20;87.26;96963.50;5057555;28;20235;-73
2021/12/05 15:43:05;;;;;;;1.97;1.13;;;;;;;4.10;87.39;96955.22;5057533;28;20243;-73
2021/12/05 15:45:33;;;;;;;3.00;1.33;;;;;;;3.95;88.34;96970.41;5056881;28;20186;-73
2021/12/05 15:48:00;;;;;;;2.40;1.10;;;;;;;3.85;88.14;96964.75;5057330;28;20202;-73
2021/12/05 15:50:30;;;;;;;2.33;1.40;;;;;;;3.72;90.48;96970.84;5057109;28;20497;-72
2021/12/05 15:53:00;;;;;;;3.97;1.70;;;;;;;3.77;89.22;96970.22;5057278;28;20299;-72
2021/12/05 15:55:46;;;;;;;2.63;1.53;;;;;;;3.85;88.14;96964.75;5057140;28;20224;-73